createdAt,value
2018-09-18T00:00:45.461Z,9.40
2018-09-18T00:03:19.837Z,6.67
2018-09-18T00:05:54.137Z,11.27
2018-09-18T00:08:28.533Z,6.80
2018-09-18T00:11:02.931Z,8.50
2018-09-18T00:13:37.455Z,6.80
2018-09-18T00:16:11.673Z,9.07
2018-09-18T00:18:46.233Z,12.63
2018-09-18T00:21:20.785Z,7.60
2018-09-18T00:23:55.245Z,9.63
2018-09-18T00:26:30.282Z,6.97
2018-09-18T00:29:04.711Z,7.97
2018-09-18T00:31:39.206Z,8.83
2018-09-18T00:34:13.677Z,6.30
2018-09-18T00:36:48.002Z,10.13
2018-09-18T00:39:22.343Z,6.00
2018-09-18T00:41:56.610Z,7.60
2018-09-18T00:44:30.952Z,10.10
2018-09-18T00:47:05.298Z,6.77
2018-09-18T00:49:40.282Z,6.40
2018-09-18T00:52:14.571Z,12.23
2018-09-18T00:54:48.734Z,5.80
2018-09-18T00:57:23.082Z,7.17
2018-09-18T00:59:57.473Z,6.60
2018-09-18T01:02:31.958Z,7.13
2018-09-18T01:05:06.364Z,8.07
2018-09-18T01:07:40.676Z,7.23
2018-09-18T01:10:15.198Z,7.60
2018-09-18T01:12:49.557Z,7.10
2018-09-18T01:15:23.923Z,7.50
2018-09-18T01:17:58.115Z,5.80
2018-09-18T01:20:32.483Z,8.07
2018-09-18T01:23:06.838Z,9.40
2018-09-18T01:25:41.164Z,8.37
2018-09-18T01:28:15.620Z,7.57
2018-09-18T01:30:49.871Z,8.50
2018-09-18T01:33:24.479Z,6.20
2018-09-18T01:35:58.842Z,7.73
2018-09-18T01:38:33.290Z,9.43
2018-09-18T01:41:07.736Z,8.33
2018-09-18T01:43:42.159Z,8.50
2018-09-18T01:46:16.496Z,6.30
2018-09-18T01:48:51.950Z,11.27
2018-09-18T01:51:26.317Z,6.57
2018-09-18T01:54:00.715Z,11.20
2018-09-18T01:56:35.068Z,11.63
2018-09-18T01:59:09.453Z,8.47
2018-09-18T02:01:43.925Z,7.03
2018-09-18T02:04:18.109Z,5.80
2018-09-18T02:06:52.586Z,8.10
2018-09-18T02:09:26.981Z,6.07
2018-09-18T02:12:01.505Z,8.70
2018-09-18T02:14:35.949Z,8.50
2018-09-18T02:17:10.291Z,8.50
2018-09-18T02:19:44.718Z,6.93
2018-09-18T02:22:19.106Z,5.90
2018-09-18T02:24:53.533Z,11.10
2018-09-18T02:27:28.039Z,7.33
2018-09-18T02:30:02.297Z,7.30
2018-09-18T02:32:36.685Z,6.97
2018-09-18T02:35:10.984Z,8.23
2018-09-18T02:37:45.497Z,7.60
2018-09-18T02:40:19.790Z,7.40
2018-09-18T02:42:54.095Z,11.10
2018-09-18T02:45:28.487Z,7.90
2018-09-18T02:48:02.882Z,7.57
2018-09-18T02:50:37.296Z,6.63
2018-09-18T02:53:11.646Z,9.37
2018-09-18T02:55:46.036Z,8.93
2018-09-18T02:58:20.458Z,11.43
2018-09-18T03:00:54.720Z,7.33
2018-09-18T03:03:29.021Z,6.47
2018-09-18T03:06:03.533Z,9.60
2018-09-18T03:08:38.105Z,10.73
2018-09-18T03:11:12.533Z,10.60
2018-09-18T03:13:47.545Z,9.47
2018-09-18T03:16:22.047Z,6.37
2018-09-18T03:18:57.073Z,8.77
2018-09-18T03:21:31.418Z,9.20
2018-09-18T03:24:05.735Z,8.70
2018-09-18T03:26:40.154Z,10.00
2018-09-18T03:29:14.546Z,8.93
2018-09-18T03:31:48.959Z,8.30
2018-09-18T03:34:23.337Z,8.97
2018-09-18T03:36:57.638Z,7.30
2018-09-18T03:39:31.881Z,12.83
2018-09-18T03:42:06.067Z,9.03
2018-09-18T03:44:40.508Z,8.40
2018-09-18T03:47:14.690Z,7.83
2018-09-18T03:49:49.279Z,6.63
2018-09-18T03:52:23.639Z,6.53
2018-09-18T03:54:58.042Z,9.80
2018-09-18T03:57:32.412Z,6.20
2018-09-18T04:00:06.537Z,10.07
2018-09-18T04:02:40.811Z,6.57
2018-09-18T04:05:15.097Z,16.50
2018-09-18T04:07:49.352Z,13.83
2018-09-18T04:10:23.678Z,7.47
2018-09-18T04:12:57.920Z,5.70
2018-09-18T04:15:32.317Z,5.93
2018-09-18T04:18:06.799Z,8.43
2018-09-18T04:20:41.219Z,7.03
2018-09-18T04:23:15.559Z,7.43
2018-09-18T04:25:50.638Z,5.87
2018-09-18T04:28:24.816Z,10.40
2018-09-18T04:30:59.322Z,9.57
2018-09-18T04:33:33.680Z,18.17
2018-09-18T04:36:08.039Z,5.80
2018-09-18T04:38:42.310Z,7.23
2018-09-18T04:41:16.508Z,9.03
2018-09-18T04:43:50.726Z,8.33
2018-09-18T04:46:25.037Z,9.27
2018-09-18T04:48:59.272Z,8.03
2018-09-18T04:51:33.572Z,6.77
2018-09-18T04:54:07.889Z,8.90
2018-09-18T04:56:42.310Z,7.30
2018-09-18T04:59:16.412Z,11.10
2018-09-18T05:01:50.877Z,6.23
2018-09-18T05:04:25.222Z,15.57
2018-09-18T05:06:59.590Z,11.73
2018-09-18T05:09:33.904Z,11.10
2018-09-18T05:12:08.264Z,7.73
2018-09-18T05:14:42.758Z,8.50
2018-09-18T05:17:17.252Z,11.90
2018-09-18T05:19:51.692Z,9.40
2018-09-18T05:22:26.069Z,8.33
2018-09-18T05:25:00.322Z,7.30
2018-09-18T05:27:34.552Z,9.77
2018-09-18T05:30:08.759Z,13.17
2018-09-18T05:32:43.047Z,11.37
2018-09-18T05:35:17.493Z,7.63
2018-09-18T05:37:51.829Z,7.10
2018-09-18T05:40:26.233Z,9.20
2018-09-18T05:43:00.721Z,8.90
2018-09-18T05:45:35.194Z,11.17
2018-09-18T05:48:12.142Z,6.50
2018-09-18T05:50:47.196Z,11.67
2018-09-18T05:53:21.682Z,7.20
2018-09-18T05:55:56.208Z,7.83
2018-09-18T05:58:30.738Z,26.37
2018-09-18T06:01:05.093Z,7.60
2018-09-18T06:03:39.402Z,7.33
2018-09-18T06:06:13.824Z,8.43
2018-09-18T06:08:48.286Z,8.83
2018-09-18T06:11:22.730Z,6.10
2018-09-18T06:13:57.085Z,7.63
2018-09-18T06:16:31.572Z,5.57
2018-09-18T06:19:06.127Z,7.43
2018-09-18T06:21:40.367Z,5.20
2018-09-18T06:24:14.740Z,10.47
2018-09-18T06:26:49.433Z,6.03
2018-09-18T06:29:23.688Z,7.53
2018-09-18T06:31:58.209Z,6.83
2018-09-18T06:34:32.547Z,6.20
2018-09-18T06:37:06.989Z,8.00
2018-09-18T06:39:41.477Z,7.47
2018-09-18T06:42:16.059Z,4.83
2018-09-18T06:44:50.259Z,10.17
2018-09-18T06:47:24.763Z,5.60
2018-09-18T06:49:59.082Z,8.57
2018-09-18T06:52:34.119Z,10.40
2018-09-18T06:55:08.269Z,8.80
2018-09-18T06:57:43.233Z,7.83
2018-09-18T07:00:17.619Z,5.00
2018-09-18T07:02:51.877Z,7.40
2018-09-18T07:05:27.269Z,7.10
2018-09-18T07:08:01.539Z,9.13
2018-09-18T07:10:35.998Z,13.23
2018-09-18T07:13:10.401Z,4.87
2018-09-18T07:15:44.856Z,4.87
2018-09-18T07:18:19.236Z,4.63
2018-09-18T07:20:53.575Z,8.67
2018-09-18T07:23:28.107Z,7.70
2018-09-18T07:26:02.539Z,5.67
2018-09-18T07:28:36.959Z,4.87
2018-09-18T07:31:11.132Z,4.83
2018-09-18T07:33:45.559Z,5.10
2018-09-18T07:36:20.038Z,5.30
2018-09-18T07:38:54.515Z,4.67
2018-09-18T07:41:28.900Z,5.13
2018-09-18T07:44:03.294Z,8.57
2018-09-18T07:46:37.767Z,4.80
2018-09-18T07:49:11.957Z,5.93
2018-09-18T07:51:46.385Z,8.50
2018-09-18T07:54:20.761Z,5.13
2018-09-18T07:56:55.175Z,4.77
2018-09-18T07:59:29.455Z,6.40
2018-09-18T08:02:03.813Z,4.93
2018-09-18T08:04:37.995Z,6.10
2018-09-18T08:07:15.374Z,3.97
2018-09-18T08:09:49.742Z,4.90
2018-09-18T08:12:24.769Z,4.87
2018-09-18T08:14:59.251Z,5.60
2018-09-18T08:17:33.765Z,6.07
2018-09-18T08:20:08.095Z,6.73
2018-09-18T08:22:42.357Z,4.93
2018-09-18T08:25:16.616Z,5.80
2018-09-18T08:27:51.092Z,4.87
2018-09-18T08:30:25.374Z,9.93
2018-09-18T08:32:59.852Z,4.37
2018-09-18T08:35:34.251Z,4.20
2018-09-18T08:38:08.658Z,8.83
2018-09-18T08:40:43.095Z,4.20
2018-09-18T08:43:17.433Z,6.23
2018-09-18T08:45:51.994Z,4.40
2018-09-18T08:48:29.516Z,7.33
2018-09-18T08:51:03.809Z,3.90
2018-09-18T08:53:39.120Z,8.73
2018-09-18T08:56:13.543Z,5.30
2018-09-18T08:58:48.165Z,9.37
2018-09-18T09:01:22.611Z,6.80
2018-09-18T09:03:56.959Z,7.23
2018-09-18T09:06:31.250Z,5.17
2018-09-18T09:09:09.229Z,4.77
2018-09-18T09:11:44.655Z,5.70
2018-09-18T09:14:19.099Z,4.20
2018-09-18T09:16:53.394Z,5.90
2018-09-18T09:19:27.733Z,6.53
2018-09-18T09:22:02.267Z,8.80
2018-09-18T09:24:36.776Z,6.67
2018-09-18T09:27:11.311Z,6.43
2018-09-18T09:29:45.721Z,6.20
2018-09-18T09:32:20.229Z,3.87
2018-09-18T09:34:54.527Z,8.20
2018-09-18T09:37:28.861Z,5.50
2018-09-18T09:40:03.038Z,5.60
2018-09-18T09:42:37.497Z,5.23
2018-09-18T09:45:11.950Z,6.33
2018-09-18T09:47:46.422Z,6.73
2018-09-18T09:50:20.800Z,7.83
2018-09-18T09:52:55.179Z,4.43
2018-09-18T09:55:29.375Z,4.40
2018-09-18T09:58:04.730Z,4.33
2018-09-18T10:00:40.776Z,9.07
2018-09-18T10:03:15.163Z,4.70
2018-09-18T10:05:49.603Z,4.40
2018-09-18T10:08:24.162Z,4.13
2018-09-18T10:10:58.752Z,7.60
2018-09-18T10:13:33.066Z,6.67
2018-09-18T10:16:07.385Z,4.77
2018-09-18T10:18:41.843Z,6.90
2018-09-18T10:21:16.367Z,5.20
2018-09-18T10:23:50.878Z,9.90
2018-09-18T10:26:25.393Z,9.50
2018-09-18T10:28:59.595Z,4.37
2018-09-18T10:31:33.846Z,11.93
2018-09-18T10:34:08.260Z,5.17
2018-09-18T10:36:43.362Z,8.37
2018-09-18T10:39:17.797Z,4.40
2018-09-18T10:41:52.253Z,8.87
2018-09-18T10:44:26.464Z,7.43
2018-09-18T10:47:00.858Z,8.23
2018-09-18T10:49:35.208Z,4.10
2018-09-18T10:52:09.549Z,9.23
2018-09-18T10:54:43.905Z,8.47
2018-09-18T10:57:18.131Z,5.87
2018-09-18T10:59:52.503Z,4.77
2018-09-18T11:02:26.805Z,8.37
2018-09-18T11:05:01.179Z,4.37
2018-09-18T11:07:35.405Z,5.23
2018-09-18T11:10:09.806Z,5.33
2018-09-18T11:12:44.203Z,4.50
2018-09-18T11:15:18.450Z,5.17
2018-09-18T11:17:52.781Z,5.37
2018-09-18T11:20:27.132Z,4.10
2018-09-18T11:23:01.626Z,6.10
2018-09-18T11:25:35.976Z,5.40
2018-09-18T11:28:10.211Z,6.97
2018-09-18T11:30:44.601Z,5.67
2018-09-18T11:33:18.957Z,9.53
2018-09-18T11:35:53.451Z,6.23
2018-09-18T11:38:27.629Z,5.90
2018-09-18T11:41:01.808Z,9.83
2018-09-18T11:43:36.216Z,6.13
2018-09-18T11:46:10.623Z,7.80
2018-09-18T11:48:45.154Z,6.40
2018-09-18T11:51:20.611Z,5.03
2018-09-18T11:53:54.889Z,3.83
2018-09-18T11:56:29.378Z,6.67
2018-09-18T11:59:03.807Z,4.83
2018-09-18T12:01:38.125Z,6.03
2018-09-18T12:04:12.463Z,4.20
2018-09-18T12:06:46.821Z,5.30
2018-09-18T12:09:21.177Z,7.93
2018-09-18T12:11:55.582Z,7.03
2018-09-18T12:14:29.966Z,4.67
2018-09-18T12:17:04.157Z,4.57
2018-09-18T12:19:38.461Z,5.60
2018-09-18T12:22:12.878Z,7.27
2018-09-18T12:24:47.239Z,7.17
2018-09-18T12:27:22.361Z,4.13
2018-09-18T12:29:56.753Z,7.83
2018-09-18T12:32:31.024Z,4.73
2018-09-18T12:35:05.410Z,6.73
2018-09-18T12:37:39.744Z,5.90
2018-09-18T12:40:14.029Z,4.60
2018-09-18T12:42:48.575Z,5.63
2018-09-18T12:45:22.613Z,4.47
2018-09-18T12:47:57.104Z,8.93
2018-09-18T12:50:31.660Z,8.83
2018-09-18T12:53:06.149Z,8.80
2018-09-18T12:55:40.599Z,8.47
2018-09-18T12:58:15.085Z,5.00
2018-09-18T13:00:49.698Z,5.03
2018-09-18T13:03:23.864Z,5.33
2018-09-18T13:05:58.374Z,4.43
2018-09-18T13:08:32.657Z,8.47
2018-09-18T13:11:07.129Z,6.30
2018-09-18T13:13:41.600Z,6.27
2018-09-18T13:16:15.997Z,8.43
2018-09-18T13:18:50.294Z,5.40
2018-09-18T13:21:24.646Z,5.23
2018-09-18T13:23:59.229Z,5.63
2018-09-18T13:26:33.538Z,6.17
2018-09-18T13:29:08.088Z,6.33
2018-09-18T13:31:42.448Z,6.23
2018-09-18T13:34:16.742Z,8.87
2018-09-18T13:36:51.278Z,5.13
2018-09-18T13:39:25.568Z,7.20
2018-09-18T13:41:59.979Z,6.57
2018-09-18T13:44:34.380Z,8.43
2018-09-18T13:47:08.724Z,12.67
2018-09-18T13:49:43.139Z,9.53
2018-09-18T13:52:17.560Z,5.80
2018-09-18T13:54:52.077Z,4.43
2018-09-18T13:57:26.655Z,10.07
2018-09-18T14:00:00.954Z,7.10
2018-09-18T14:02:35.673Z,5.80
2018-09-18T14:05:16.745Z,15.63
2018-09-18T14:07:52.968Z,5.00
2018-09-18T14:10:28.176Z,4.73
2018-09-18T14:13:02.519Z,8.63
2018-09-18T14:15:36.920Z,5.20
2018-09-18T14:18:11.154Z,12.00
2018-09-18T14:20:45.518Z,5.50
2018-09-18T14:23:19.824Z,10.77
2018-09-18T14:25:54.163Z,5.57
2018-09-18T14:28:30.910Z,6.80
2018-09-18T14:31:06.053Z,12.97
2018-09-18T14:33:40.377Z,5.43
2018-09-18T14:36:14.742Z,5.60
2018-09-18T14:38:49.107Z,9.53
2018-09-18T14:41:23.601Z,9.37
2018-09-18T14:43:58.184Z,7.30
2018-09-18T14:46:32.464Z,6.00
2018-09-18T14:49:06.847Z,5.67
2018-09-18T14:51:41.438Z,6.33
2018-09-18T14:54:15.658Z,6.40
2018-09-18T14:56:50.063Z,6.37
2018-09-18T14:59:24.359Z,6.03
2018-09-18T15:01:58.915Z,14.33
2018-09-18T15:04:33.353Z,9.57
2018-09-18T15:07:08.007Z,8.70
2018-09-18T15:09:42.831Z,4.80
2018-09-18T15:12:17.367Z,5.80
2018-09-18T15:14:51.733Z,8.50
2018-09-18T15:17:26.167Z,5.93
2018-09-18T15:20:00.497Z,7.70
2018-09-18T15:22:35.398Z,6.80
2018-09-18T15:25:09.663Z,8.00
2018-09-18T15:27:44.049Z,6.33
2018-09-18T15:30:18.455Z,8.17
2018-09-18T15:32:52.875Z,11.50
2018-09-18T15:35:27.313Z,4.77
2018-09-18T15:38:01.621Z,13.70
2018-09-18T15:40:36.450Z,5.97
2018-09-18T15:43:10.795Z,6.17
2018-09-18T15:45:45.141Z,11.87
2018-09-18T15:48:19.538Z,11.63
2018-09-18T15:50:53.942Z,8.20
2018-09-18T15:53:28.114Z,5.37
2018-09-18T15:56:02.697Z,6.00
2018-09-18T15:58:37.219Z,5.27
2018-09-18T16:01:11.662Z,5.40
2018-09-18T16:03:46.218Z,9.80
2018-09-18T16:06:20.555Z,7.00
2018-09-18T16:08:54.772Z,6.30
2018-09-18T16:11:29.127Z,6.77
2018-09-18T16:14:03.370Z,7.63
2018-09-18T16:16:37.922Z,5.57
2018-09-18T16:19:12.390Z,8.00
2018-09-18T16:21:47.391Z,10.70
2018-09-18T16:24:21.638Z,10.07
2018-09-18T16:26:55.916Z,4.97
2018-09-18T16:29:30.246Z,5.57
2018-09-18T16:32:04.565Z,8.00
2018-09-18T16:34:39.039Z,9.57
2018-09-18T16:37:13.478Z,5.57
2018-09-18T16:39:47.693Z,6.47
2018-09-18T16:42:22.019Z,10.47
2018-09-18T16:44:57.365Z,7.47
2018-09-18T16:47:31.466Z,9.97
2018-09-18T16:50:05.825Z,7.30
2018-09-18T16:52:40.052Z,7.53
2018-09-18T16:55:14.180Z,7.53
2018-09-18T16:57:48.579Z,7.10
2018-09-18T17:00:22.795Z,5.50
2018-09-18T17:02:57.047Z,9.20
2018-09-18T17:05:31.175Z,8.40
2018-09-18T17:08:05.634Z,7.13
2018-09-18T17:10:40.161Z,6.33
2018-09-18T17:13:14.086Z,6.80
2018-09-18T17:15:48.462Z,9.53
2018-09-18T17:18:22.930Z,10.37
2018-09-18T17:20:57.187Z,6.93
2018-09-18T17:23:31.551Z,12.73
2018-09-18T17:26:06.136Z,6.70
2018-09-18T17:28:40.814Z,7.90
2018-09-18T17:31:14.964Z,11.10
2018-09-18T17:33:49.302Z,7.43
2018-09-18T17:36:23.570Z,10.43
2018-09-18T17:38:58.057Z,9.27
2018-09-18T17:41:32.479Z,7.47
2018-09-18T17:44:07.274Z,10.43
2018-09-18T17:46:41.491Z,10.73
2018-09-18T17:49:15.938Z,14.10
2018-09-18T17:51:50.371Z,8.80
2018-09-18T17:54:24.831Z,10.93
2018-09-18T17:57:03.732Z,12.10
2018-09-18T17:59:38.829Z,11.50
2018-09-18T18:02:13.101Z,7.27
2018-09-18T18:04:47.460Z,11.27
2018-09-18T18:07:21.789Z,8.40
2018-09-18T18:09:56.011Z,14.20
2018-09-18T18:12:30.199Z,7.80
2018-09-18T18:15:04.455Z,10.90
2018-09-18T18:17:38.857Z,6.60
2018-09-18T18:20:13.304Z,14.77
2018-09-18T18:22:47.636Z,11.90
2018-09-18T18:25:21.975Z,6.67
2018-09-18T18:27:56.380Z,14.93
2018-09-18T18:30:31.438Z,16.40
2018-09-18T18:33:05.834Z,18.77
2018-09-18T18:35:40.169Z,12.50
2018-09-18T18:38:14.598Z,14.63
2018-09-18T18:40:48.899Z,6.80
2018-09-18T18:43:23.157Z,5.73
2018-09-18T18:45:57.377Z,9.50
2018-09-18T18:48:32.693Z,11.70
2018-09-18T18:51:06.976Z,7.80
2018-09-18T18:53:41.419Z,9.57
2018-09-18T18:56:15.717Z,10.17
2018-09-18T18:58:51.051Z,11.50
2018-09-18T19:01:25.506Z,8.40
2018-09-18T19:04:01.064Z,9.17
2018-09-18T19:06:37.716Z,12.73
2018-09-18T19:09:13.421Z,6.20
2018-09-18T19:11:48.609Z,9.03
2018-09-18T19:14:23.068Z,5.03
2018-09-18T19:16:58.367Z,9.40
2018-09-18T19:19:33.973Z,7.43
2018-09-18T19:22:08.447Z,6.30
2018-09-18T19:24:42.914Z,8.07
2018-09-18T19:27:17.239Z,6.97
2018-09-18T19:29:51.591Z,11.83
2018-09-18T19:32:25.785Z,7.80
2018-09-18T19:35:00.330Z,8.13
2018-09-18T19:37:34.654Z,6.30
2018-09-18T19:40:09.021Z,11.60
2018-09-18T19:42:43.159Z,7.23
2018-09-18T19:45:17.369Z,10.73
2018-09-18T19:47:51.674Z,9.63
2018-09-18T19:50:26.125Z,9.27
2018-09-18T19:53:00.471Z,7.33
2018-09-18T19:55:34.762Z,16.20
2018-09-18T19:58:09.111Z,11.50
2018-09-18T20:00:43.568Z,7.87
2018-09-18T20:03:18.113Z,8.00
2018-09-18T20:05:52.049Z,10.60
2018-09-18T20:08:26.361Z,8.90
2018-09-18T20:11:00.601Z,8.80
2018-09-18T20:13:34.994Z,11.33
2018-09-18T20:16:09.244Z,12.53
2018-09-18T20:18:43.603Z,9.30
2018-09-18T20:21:17.772Z,8.13
2018-09-18T20:23:52.342Z,9.90
2018-09-18T20:26:26.579Z,10.53
2018-09-18T20:29:01.093Z,11.13
2018-09-18T20:31:35.447Z,7.37
2018-09-18T20:34:09.567Z,11.67
2018-09-18T20:36:43.862Z,11.33
2018-09-18T20:39:18.145Z,6.10
2018-09-18T20:41:52.441Z,5.93
2018-09-18T20:44:26.850Z,10.50
2018-09-18T20:47:01.338Z,9.37
2018-09-18T20:49:35.774Z,9.50
2018-09-18T20:52:10.274Z,10.13
2018-09-18T20:54:44.701Z,14.40
2018-09-18T20:57:19.134Z,6.70
2018-09-18T20:59:53.650Z,15.47
2018-09-18T21:02:28.053Z,11.60
2018-09-18T21:05:02.348Z,5.20
2018-09-18T21:07:36.831Z,6.50
2018-09-18T21:10:11.134Z,14.80
2018-09-18T21:12:45.587Z,11.60
2018-09-18T21:15:20.609Z,8.47
2018-09-18T21:17:55.099Z,10.33
2018-09-18T21:20:29.409Z,7.10
2018-09-18T21:23:03.685Z,7.60
2018-09-18T21:26:16.350Z,7.77
2018-09-18T21:28:50.674Z,9.13
2018-09-18T21:31:25.771Z,9.80
2018-09-18T21:34:00.035Z,7.60
2018-09-18T21:36:34.524Z,12.80
2018-09-18T21:39:09.708Z,25.23
2018-09-18T21:41:44.121Z,13.17
2018-09-18T21:44:18.645Z,17.47
2018-09-18T21:46:53.067Z,9.87
2018-09-18T21:49:27.290Z,12.63
2018-09-18T21:52:01.562Z,19.53
2018-09-18T21:54:35.916Z,11.27
2018-09-18T21:57:10.280Z,13.90
2018-09-18T21:59:44.720Z,11.53
2018-09-18T22:02:19.242Z,13.30
2018-09-18T22:04:53.569Z,16.97
2018-09-18T22:07:28.984Z,15.23
2018-09-18T22:10:03.426Z,16.30
2018-09-18T22:12:37.821Z,15.77
2018-09-18T22:15:12.003Z,13.53
2018-09-18T22:17:46.423Z,21.47
2018-09-18T22:20:20.729Z,21.93
2018-09-18T22:22:55.122Z,18.50
2018-09-18T22:25:30.466Z,23.03
2018-09-18T22:28:04.789Z,26.13
2018-09-18T22:30:39.148Z,22.07
2018-09-18T22:33:13.367Z,24.77
2018-09-18T22:35:47.597Z,29.20
2018-09-18T22:38:21.957Z,34.57
2018-09-18T22:40:56.321Z,37.20
2018-09-18T22:43:30.623Z,29.63
2018-09-18T22:46:04.944Z,32.50
2018-09-18T22:48:39.387Z,44.10
2018-09-18T22:51:13.685Z,35.37
2018-09-18T22:53:47.974Z,36.17
2018-09-18T22:56:22.445Z,40.70
2018-09-18T22:58:56.926Z,41.23
2018-09-18T23:01:31.268Z,47.83
2018-09-18T23:04:05.828Z,36.67
2018-09-18T23:06:40.171Z,39.47
2018-09-18T23:09:14.515Z,40.67
2018-09-18T23:11:49.012Z,40.63
2018-09-18T23:14:23.476Z,38.77
2018-09-18T23:16:57.693Z,40.83
2018-09-18T23:19:32.029Z,35.10
2018-09-18T23:22:06.487Z,45.03
2018-09-18T23:24:40.954Z,36.70
2018-09-18T23:27:15.537Z,41.27
2018-09-18T23:29:49.969Z,36.93
2018-09-18T23:32:24.262Z,49.10
2018-09-18T23:34:58.679Z,37.83
2018-09-18T23:37:32.951Z,45.70
2018-09-18T23:40:07.494Z,47.67
2018-09-18T23:42:41.937Z,43.80
2018-09-18T23:45:16.308Z,48.40
2018-09-18T23:47:50.777Z,48.93
2018-09-18T23:50:25.261Z,49.80
2018-09-18T23:52:59.678Z,43.10
2018-09-18T23:55:33.990Z,49.70
2018-09-18T23:58:09.221Z,46.07
